Time;durP1;ratioP1;P1;durP2;ratioP2;P2;SDS_P1;SDS_P2;PMS_P1;PMS_P2;Temp;Humidity;BMP_temperature;BMP_pressure;BME280_temperature;BME280_humidity;BME280_pressure;Samples;Min_cycle;Max_cycle;Signal;HPM_P1;HPM_P2
2022/04/07 00:01:46;;;;;;;51.30;23.70;;;;;;;7.55;73.06;97037.06;107923;1279;22617;-72
2022/04/07 00:04:13;;;;;;;61.30;31.50;;;;;;;7.49;73.41;97031.41;107916;1279;22784;-71
2022/04/07 00:06:40;;;;;;;74.80;33.30;;;;;;;7.44;73.71;97033.24;107935;1279;22941;-72
2022/04/07 00:09:07;;;;;;;74.10;33.60;;;;;;;7.41;73.62;97035.55;107939;1279;24431;-73
2022/04/07 00:11:34;;;;;;;75.50;33.40;;;;;;;7.40;73.55;97026.44;107901;1279;22672;-72
2022/04/07 00:14:01;;;;;;;60.50;28.40;;;;;;;7.40;73.34;97025.92;107970;1279;22557;-73
2022/04/07 00:16:28;;;;;;;57.80;27.40;;;;;;;7.41;73.16;97027.27;107950;1279;22610;-73
2022/04/07 00:18:57;;;;;;;53.00;24.40;;;;;;;7.45;73.49;97024.67;107901;1279;22623;-73
2022/04/07 00:21:24;;;;;;;50.40;24.70;;;;;;;7.46;73.58;97018.20;107914;1279;22620;-73
2022/04/07 00:23:53;;;;;;;58.40;24.40;;;;;;;7.49;73.84;97016.26;107952;1279;22593;-73
2022/04/07 00:26:20;;;;;;;34.70;18.30;;;;;;;7.51;74.14;97011.35;107916;1279;22567;-72
2022/04/07 00:28:47;;;;;;;43.30;22.10;;;;;;;7.56;73.93;97011.85;107992;1279;22675;-72
2022/04/07 00:31:15;;;;;;;38.60;19.80;;;;;;;7.62;73.94;97005.17;107931;1279;22712;-73
2022/04/07 00:33:42;;;;;;;33.60;18.10;;;;;;;7.66;73.51;97003.66;107933;1279;22572;-73
2022/04/07 00:36:09;;;;;;;39.50;19.20;;;;;;;7.71;73.30;97004.30;107955;1279;22638;-73
2022/04/07 00:38:36;;;;;;;40.10;19.70;;;;;;;7.74;73.36;97003.14;107932;1279;22576;-73
2022/04/07 00:41:03;;;;;;;36.00;17.90;;;;;;;7.80;73.04;97004.39;108014;1279;22573;-73
2022/04/07 00:43:36;;;;;;;31.10;17.30;;;;;;;7.85;73.48;97003.15;107973;1279;22616;-73
2022/04/07 00:46:04;;;;;;;32.00;17.30;;;;;;;7.89;74.06;97002.46;107916;1279;24265;-73
2022/04/07 00:48:35;;;;;;;35.50;18.60;;;;;;;7.92;73.88;97001.39;107997;1279;22722;-72
2022/04/07 00:51:03;;;;;;;34.00;17.60;;;;;;;7.96;73.52;97001.94;108006;1279;22624;-72
2022/04/07 00:53:30;;;;;;;30.20;16.90;;;;;;;8.00;73.15;97000.56;108041;1279;24441;-72
2022/04/07 00:56:01;;;;;;;30.30;15.80;;;;;;;8.06;72.97;97002.29;108209;1279;22588;-74
2022/04/07 00:58:29;;;;;;;26.70;13.90;;;;;;;8.15;72.77;97001.25;108178;1279;23934;-73
2022/04/07 01:00:57;;;;;;;26.50;14.60;;;;;;;8.23;72.58;96999.18;108231;1279;24227;-72
2022/04/07 01:03:25;;;;;;;29.70;16.00;;;;;;;8.31;72.21;97001.85;108179;1279;22556;-73
2022/04/07 01:05:52;;;;;;;27.10;14.50;;;;;;;8.36;72.33;97001.95;108173;1279;22549;-73
2022/04/07 01:08:19;;;;;;;28.10;14.80;;;;;;;8.45;72.39;96997.64;108231;1279;22546;-73
2022/04/07 01:10:47;;;;;;;25.00;13.80;;;;;;;8.48;72.53;96996.80;108205;1279;22923;-72
2022/04/07 01:13:15;;;;;;;28.60;15.50;;;;;;;8.49;72.99;96996.19;108217;1279;22649;-72
2022/04/07 01:15:43;;;;;;;28.60;15.80;;;;;;;8.49;72.56;96995.50;108186;1279;23896;-72
2022/04/07 01:18:10;;;;;;;31.60;16.00;;;;;;;8.48;72.31;96993.86;108188;1279;22649;-72
2022/04/07 01:20:38;;;;;;;32.20;14.60;;;;;;;8.51;72.11;96993.98;108219;1279;22548;-73
2022/04/07 01:23:07;;;;;;;30.00;16.20;;;;;;;8.55;71.92;96995.21;108200;1279;22547;-72
2022/04/07 01:25:36;;;;;;;33.50;17.70;;;;;;;8.59;71.51;96999.16;108201;1279;22677;-72
2022/04/07 01:28:03;;;;;;;31.00;16.50;;;;;;;8.63;71.36;96998.36;108214;1279;22644;-72
2022/04/07 01:30:31;;;;;;;32.20;15.90;;;;;;;8.65;71.22;96995.20;108172;1279;22563;-73
2022/04/07 01:33:00;;;;;;;27.40;14.80;;;;;;;8.68;71.35;96992.45;108160;1279;22549;-72
2022/04/07 01:35:29;;;;;;;25.40;13.10;;;;;;;8.72;71.36;96984.60;108235;1279;22552;-73
2022/04/07 01:37:59;;;;;;;27.00;13.80;;;;;;;8.75;71.64;96990.59;108188;1279;22553;-72
2022/04/07 01:40:33;;;;;;;27.20;14.60;;;;;;;8.76;71.68;96993.45;108186;1279;22678;-71
2022/04/07 01:43:01;;;;;;;26.50;15.70;;;;;;;8.74;71.52;96998.98;108198;1279;22559;-73
2022/04/07 01:45:30;;;;;;;29.10;15.80;;;;;;;8.70;71.49;96998.84;108204;1279;22559;-73
2022/04/07 01:47:58;;;;;;;28.50;16.30;;;;;;;8.63;70.94;97000.60;108200;1279;22655;-73
2022/04/07 01:50:26;;;;;;;28.70;16.60;;;;;;;8.56;70.97;97000.19;108201;1279;22731;-73
2022/04/07 01:52:53;;;;;;;29.60;15.70;;;;;;;8.48;70.79;97001.52;108293;1279;22554;-72
2022/04/07 01:55:21;;;;;;;28.60;17.40;;;;;;;8.39;70.59;96999.99;108178;1279;22550;-72
2022/04/07 01:57:49;;;;;;;31.90;16.70;;;;;;;8.29;70.83;96998.01;107973;1279;294976;-72
2022/04/07 02:00:17;;;;;;;22.30;13.60;;;;;;;8.25;70.61;96999.68;108283;1279;22789;-73
2022/04/07 02:02:45;;;;;;;21.40;13.30;;;;;;;8.22;71.15;96994.80;108214;1279;22581;-73
2022/04/07 02:05:13;;;;;;;26.30;14.70;;;;;;;8.19;71.48;96993.48;108190;1279;22582;-73
2022/04/07 02:07:42;;;;;;;28.40;15.10;;;;;;;8.15;71.51;96991.30;108195;1279;24090;-73
2022/04/07 02:10:12;;;;;;;32.30;17.20;;;;;;;8.14;71.24;96989.31;108235;1279;22557;-72
2022/04/07 02:12:42;;;;;;;38.60;18.20;;;;;;;8.14;71.00;96986.06;108239;1279;22744;-72
2022/04/07 02:15:11;;;;;;;34.80;17.70;;;;;;;8.14;71.11;96978.25;108206;1279;22669;-73
2022/04/07 02:17:38;;;;;;;30.30;17.20;;;;;;;8.13;70.90;96977.34;108190;1279;25301;-72
2022/04/07 02:20:07;;;;;;;27.80;15.80;;;;;;;8.11;70.83;96973.13;108189;1279;22549;-72
2022/04/07 02:22:34;;;;;;;29.20;15.80;;;;;;;8.09;70.67;96968.48;108211;1279;22557;-73
2022/04/07 02:25:02;;;;;;;27.00;15.00;;;;;;;8.06;70.65;96967.85;108204;1279;22567;-72
2022/04/07 02:27:37;;;;;;;22.80;12.50;;;;;;;8.09;70.68;96969.00;108232;1279;22708;-73
2022/04/07 02:30:13;;;;;;;24.60;12.40;;;;;;;8.10;71.12;96970.59;108185;1279;22566;-73
2022/04/07 02:32:43;;;;;;;25.40;13.50;;;;;;;8.11;71.46;96967.60;108176;1279;22647;-72
2022/04/07 02:35:12;;;;;;;23.20;13.50;;;;;;;8.11;71.20;96971.10;108206;1279;22666;-73
2022/04/07 02:37:40;;;;;;;25.40;13.00;;;;;;;8.10;71.06;96970.63;108211;1279;25414;-73
2022/04/07 02:40:07;;;;;;;24.10;12.90;;;;;;;8.12;70.66;96969.40;108180;1279;22543;-73
2022/04/07 02:42:35;;;;;;;22.40;11.90;;;;;;;8.14;70.43;96970.77;108184;1279;22549;-72
2022/04/07 02:45:03;;;;;;;21.70;10.90;;;;;;;8.16;70.19;96971.98;108206;1279;22552;-73
2022/04/07 02:47:36;;;;;;;22.30;12.10;;;;;;;8.19;69.98;96971.09;108199;1279;22706;-73
2022/04/07 02:50:04;;;;;;;25.30;11.30;;;;;;;8.20;69.87;96967.70;108232;1279;24317;-72
2022/04/07 02:52:32;;;;;;;23.50;12.70;;;;;;;8.21;69.84;96965.77;108167;1281;25537;-74
2022/04/07 02:55:00;;;;;;;21.10;11.50;;;;;;;8.21;69.85;96966.90;108200;1279;22680;-73
2022/04/07 02:57:30;;;;;;;21.60;9.70;;;;;;;8.25;69.66;96961.36;108209;1279;22574;-74
2022/04/07 02:59:58;;;;;;;21.50;11.20;;;;;;;8.29;70.01;96959.01;108217;1279;22594;-72
2022/04/07 03:02:27;;;;;;;24.60;11.40;;;;;;;8.30;69.90;96961.00;108192;1279;22667;-72
2022/04/07 03:04:54;;;;;;;24.30;12.20;;;;;;;8.31;69.82;96959.54;108228;1279;22706;-71
2022/04/07 03:07:21;;;;;;;20.60;12.50;;;;;;;8.32;69.67;96957.45;108199;1279;22558;-73
2022/04/07 03:09:48;;;;;;;22.30;12.10;;;;;;;8.31;69.39;96955.55;108212;1279;22561;-76
2022/04/07 03:12:16;;;;;;;22.80;12.80;;;;;;;8.30;69.05;96954.42;108179;1279;23592;-73
2022/04/07 03:14:43;;;;;;;20.50;12.00;;;;;;;8.29;69.50;96954.48;108153;1279;24395;-73
2022/04/07 03:17:10;;;;;;;19.30;12.10;;;;;;;8.30;68.96;96950.93;108184;1279;22617;-72
2022/04/07 03:19:37;;;;;;;19.70;12.20;;;;;;;8.31;69.23;96947.10;108232;1279;22549;-72
2022/04/07 03:22:04;;;;;;;18.70;11.50;;;;;;;8.31;68.80;96943.45;108266;1279;22708;-72
2022/04/07 03:24:31;;;;;;;18.20;11.00;;;;;;;8.35;69.28;96944.64;108190;1279;22539;-73
2022/04/07 03:26:59;;;;;;;18.30;10.50;;;;;;;8.39;69.65;96941.59;108282;1279;22712;-72
2022/04/07 03:29:28;;;;;;;18.80;11.80;;;;;;;8.41;70.02;96943.79;108193;1279;22572;-73
2022/04/07 03:31:55;;;;;;;18.50;11.60;;;;;;;8.41;69.93;96947.10;108197;1279;22640;-73
2022/04/07 03:34:22;;;;;;;23.90;13.00;;;;;;;8.43;69.45;96945.92;108197;1279;22721;-77
2022/04/07 03:36:49;;;;;;;20.20;11.80;;;;;;;8.43;69.39;96946.06;108191;1279;24238;-73
2022/04/07 03:39:16;;;;;;;21.40;12.30;;;;;;;8.43;69.28;96936.04;108198;1279;22627;-74
2022/04/07 03:41:43;;;;;;;21.20;12.50;;;;;;;8.41;68.91;96937.38;108247;1279;25478;-72
2022/04/07 03:44:10;;;;;;;21.70;12.40;;;;;;;8.40;69.05;96930.39;108223;1279;22565;-74
2022/04/07 03:46:38;;;;;;;22.10;12.00;;;;;;;8.39;68.56;96926.48;108229;1279;22556;-75
2022/04/07 03:49:05;;;;;;;24.10;14.00;;;;;;;8.38;68.68;96933.85;108217;1279;22631;-73
2022/04/07 03:51:32;;;;;;;21.10;11.80;;;;;;;8.37;68.89;96931.68;108191;1279;24437;-74
2022/04/07 03:53:59;;;;;;;16.30;11.00;;;;;;;8.39;69.27;96928.05;108299;1279;22630;-74
2022/04/07 03:56:26;;;;;;;20.20;11.60;;;;;;;8.39;69.54;96920.80;108281;1279;22553;-74
2022/04/07 03:58:53;;;;;;;26.40;13.80;;;;;;;8.37;69.64;96916.40;108193;1279;22576;-74
2022/04/07 04:01:20;;;;;;;23.70;13.40;;;;;;;8.35;69.81;96914.16;108204;1279;24126;-74
2022/04/07 04:03:47;;;;;;;24.50;13.40;;;;;;;8.33;69.48;96912.26;108193;1279;22626;-74
2022/04/07 04:06:14;;;;;;;26.70;14.00;;;;;;;8.29;69.12;96910.25;108185;1279;22554;-73
2022/04/07 04:08:42;;;;;;;25.70;14.00;;;;;;;8.26;69.37;96916.38;108279;1279;24405;-74
2022/04/07 04:11:09;;;;;;;24.50;13.80;;;;;;;8.24;68.92;96920.55;108225;1279;22550;-74
2022/04/07 04:13:36;;;;;;;27.90;15.40;;;;;;;8.21;69.12;96923.56;108208;1279;23937;-75
2022/04/07 04:16:04;;;;;;;30.10;14.90;;;;;;;8.19;68.99;96921.35;108197;1279;22554;-73
2022/04/07 04:18:31;;;;;;;28.70;15.50;;;;;;;8.16;68.88;96922.77;108198;1281;22631;-73
2022/04/07 04:20:58;;;;;;;27.40;15.10;;;;;;;8.14;68.66;96927.63;108209;1279;22647;-73
2022/04/07 04:23:25;;;;;;;24.50;12.80;;;;;;;8.19;69.25;96927.96;108192;1279;22546;-73
2022/04/07 04:25:52;;;;;;;20.40;11.60;;;;;;;8.19;69.85;96928.94;108210;1279;22685;-71
2022/04/07 04:28:19;;;;;;;22.30;13.40;;;;;;;8.20;69.92;96926.78;108196;1279;22567;-73
2022/04/07 04:30:46;;;;;;;23.80;13.70;;;;;;;8.19;70.15;96927.59;108192;1279;22566;-73
2022/04/07 04:33:13;;;;;;;21.00;12.50;;;;;;;8.19;69.82;96928.79;108287;1279;22658;-71
2022/04/07 04:35:40;;;;;;;26.90;13.70;;;;;;;8.21;69.47;96932.76;108271;1279;22593;-73
2022/04/07 04:38:07;;;;;;;27.80;13.00;;;;;;;8.23;69.38;96931.42;108264;1279;22574;-72
2022/04/07 04:40:34;;;;;;;23.40;11.80;;;;;;;8.27;69.20;96930.05;108274;1279;22568;-73
2022/04/07 04:43:02;;;;;;;21.50;11.90;;;;;;;8.29;69.38;96929.66;108296;1279;24438;-73
2022/04/07 04:45:29;;;;;;;24.90;12.90;;;;;;;8.32;69.36;96925.64;108294;1279;24441;-73
2022/04/07 04:47:56;;;;;;;32.70;14.90;;;;;;;8.36;69.11;96924.49;108279;1279;22676;-75
2022/04/07 04:50:24;;;;;;;26.90;13.80;;;;;;;8.39;68.88;96928.42;108266;1279;24432;-73
2022/04/07 04:52:52;;;;;;;19.60;10.90;;;;;;;8.43;69.11;96930.98;108303;1279;22550;-73
2022/04/07 04:55:19;;;;;;;18.80;9.40;;;;;;;8.53;69.09;96933.95;108026;1279;24105;-72
2022/04/07 04:57:46;;;;;;;18.40;9.80;;;;;;;8.63;69.94;96929.63;107977;1276;22556;-71
2022/04/07 05:00:14;;;;;;;25.80;12.70;;;;;;;8.74;70.24;96923.86;108019;1279;22533;-72
2022/04/07 05:02:41;;;;;;;23.50;13.20;;;;;;;8.85;70.08;96929.89;108022;1279;22562;-72
2022/04/07 05:05:08;;;;;;;19.80;10.90;;;;;;;8.96;69.87;96929.05;108045;1279;22624;-72
2022/04/07 05:07:35;;;;;;;23.10;11.20;;;;;;;9.06;69.48;96932.53;108046;1279;22551;-72
2022/04/07 05:10:04;;;;;;;25.90;12.30;;;;;;;9.14;69.41;96935.88;108013;1279;25107;-72
2022/04/07 05:12:32;;;;;;;30.00;13.20;;;;;;;9.16;69.06;96937.43;108001;1277;22650;-71
2022/04/07 05:14:59;;;;;;;25.20;12.40;;;;;;;9.19;68.88;96937.15;108017;1279;22644;-72
2022/04/07 05:17:26;;;;;;;33.40;14.70;;;;;;;9.21;68.38;96937.56;108033;1279;22750;-73
2022/04/07 05:19:53;;;;;;;24.30;11.60;;;;;;;9.22;68.35;96938.13;108084;1279;25178;-72
2022/04/07 05:22:20;;;;;;;21.60;11.40;;;;;;;9.25;67.99;96940.77;108011;1279;22741;-71
2022/04/07 05:24:48;;;;;;;17.30;9.80;;;;;;;9.28;67.95;96941.21;107985;1279;22539;-73
2022/04/07 05:27:16;;;;;;;18.30;9.50;;;;;;;9.32;67.91;96942.30;107998;1279;23544;-73
2022/04/07 05:29:43;;;;;;;20.30;11.40;;;;;;;9.35;68.01;96940.92;107986;1279;22553;-71
2022/04/07 05:32:10;;;;;;;31.90;17.60;;;;;;;9.46;67.72;96936.71;107964;1279;22565;-73
2022/04/07 05:34:39;;;;;;;38.30;20.00;;;;;;;9.59;67.37;96935.79;107934;1279;22632;-71
2022/04/07 05:37:06;;;;;;;35.40;17.00;;;;;;;9.77;67.22;96929.26;107901;1279;22535;-72
2022/04/07 05:39:33;;;;;;;23.20;13.30;;;;;;;10.00;66.14;96921.45;107910;1279;24444;-72
2022/04/07 05:42:00;;;;;;;22.00;11.70;;;;;;;10.23;66.26;96921.70;107916;1279;22572;-72
2022/04/07 05:44:27;;;;;;;21.40;10.40;;;;;;;10.41;65.83;96921.58;107904;1279;22544;-71
2022/04/07 05:46:54;;;;;;;21.90;12.40;;;;;;;10.55;65.24;96922.05;107924;1279;22562;-73
2022/04/07 05:49:22;;;;;;;19.70;11.00;;;;;;;10.72;65.27;96922.40;107919;1279;22584;-70
2022/04/07 05:51:53;;;;;;;21.30;11.60;;;;;;;10.90;64.57;96922.95;107911;1279;22667;-71
2022/04/07 05:54:20;;;;;;;21.00;11.10;;;;;;;11.06;64.05;96923.80;107901;1279;22534;-71
2022/04/07 05:56:47;;;;;;;13.90;7.70;;;;;;;11.22;64.21;96919.44;107923;1279;24241;-73
2022/04/07 05:59:15;;;;;;;14.80;6.80;;;;;;;11.38;63.99;96913.75;108000;1279;25329;-71
2022/04/07 06:01:42;;;;;;;16.10;8.00;;;;;;;11.50;64.04;96912.17;107920;1279;22547;-72
2022/04/07 06:04:09;;;;;;;20.50;9.80;;;;;;;11.58;62.92;96910.70;107916;1279;24458;-71
2022/04/07 06:06:36;;;;;;;16.50;7.90;;;;;;;11.62;63.09;96915.20;107920;1279;23266;-73
2022/04/07 06:09:04;;;;;;;16.20;7.10;;;;;;;11.60;63.12;96915.77;107915;1279;22576;-72
2022/04/07 06:11:31;;;;;;;10.40;6.00;;;;;;;11.55;62.47;96917.65;107929;1279;22581;-72
2022/04/07 06:13:58;;;;;;;10.60;5.90;;;;;;;11.49;62.50;96919.33;107913;1279;25579;-73
2022/04/07 06:16:25;;;;;;;12.70;6.10;;;;;;;11.47;62.45;96922.23;107906;1279;23124;-74
2022/04/07 06:18:52;;;;;;;9.90;6.20;;;;;;;11.46;62.34;96918.04;107923;1279;22587;-72
2022/04/07 06:21:23;;;;;;;12.30;5.50;;;;;;;11.47;62.13;96915.45;107938;1279;22809;-72
2022/04/07 06:23:51;;;;;;;8.30;4.90;;;;;;;11.48;61.74;96909.11;107881;1279;23560;-73
2022/04/07 06:26:19;;;;;;;10.00;4.70;;;;;;;11.44;61.47;96908.10;108206;1278;22584;-72
2022/04/07 06:28:46;;;;;;;9.50;5.70;;;;;;;11.44;61.18;96904.96;107912;1278;22635;-74
2022/04/07 06:31:13;;;;;;;9.70;5.10;;;;;;;11.43;60.87;96902.98;107913;1279;22569;-72
2022/04/07 06:33:40;;;;;;;10.80;5.20;;;;;;;11.43;60.42;96902.14;107926;1279;22556;-71
2022/04/07 06:36:07;;;;;;;12.10;5.70;;;;;;;11.40;60.64;96901.15;107904;1279;22704;-72
2022/04/07 06:38:34;;;;;;;11.90;4.90;;;;;;;11.38;60.91;96898.34;107941;1279;22648;-72
2022/04/07 06:41:01;;;;;;;10.60;4.90;;;;;;;11.39;60.69;96897.11;108018;1279;22620;-72
2022/04/07 06:43:28;;;;;;;9.30;4.40;;;;;;;11.40;60.56;96900.83;107892;1279;23975;-70
2022/04/07 06:45:56;;;;;;;7.40;3.70;;;;;;;11.37;60.21;96898.47;107941;1279;22696;-72
2022/04/07 06:48:23;;;;;;;8.30;4.20;;;;;;;11.37;60.17;96896.77;107949;1279;22552;-74
2022/04/07 06:50:50;;;;;;;7.00;3.80;;;;;;;11.36;59.89;96896.54;107935;1279;25405;-73
2022/04/07 06:53:17;;;;;;;6.90;3.40;;;;;;;11.35;60.09;96898.55;108068;1279;22581;-72
2022/04/07 06:55:44;;;;;;;7.40;3.70;;;;;;;11.39;60.15;96905.84;107930;1279;22555;-71
2022/04/07 06:58:12;;;;;;;7.70;4.10;;;;;;;11.45;60.23;96902.62;107948;1279;22733;-71
2022/04/07 07:00:46;;;;;;;7.40;3.70;;;;;;;11.53;60.20;96903.75;107928;1279;23564;-72
2022/04/07 07:03:15;;;;;;;5.50;3.00;;;;;;;11.61;59.75;96905.25;107994;1279;25604;-71
2022/04/07 07:05:42;;;;;;;8.00;3.30;;;;;;;11.64;59.65;96903.63;107910;1279;25431;-71
2022/04/07 07:08:17;;;;;;;6.10;3.20;;;;;;;11.72;59.63;96894.83;107912;1279;22559;-71
2022/04/07 07:10:47;;;;;;;5.30;2.90;;;;;;;11.78;59.65;96897.83;108188;1279;22791;-72
2022/04/07 07:13:20;;;;;;;5.60;2.70;;;;;;;11.86;59.47;96899.17;107956;1279;22577;-72
2022/04/07 07:15:47;;;;;;;5.20;2.70;;;;;;;11.92;59.33;96893.33;107933;1279;22584;-71
2022/04/07 07:18:16;;;;;;;6.20;3.40;;;;;;;11.99;59.59;96891.46;108103;1279;25284;-72
2022/04/07 07:20:43;;;;;;;7.50;3.30;;;;;;;12.08;59.40;96889.48;107922;1279;23406;-73
2022/04/07 07:23:10;;;;;;;4.50;2.40;;;;;;;12.19;59.17;96890.02;107959;1279;22547;-73
2022/04/07 07:25:37;;;;;;;7.20;2.60;;;;;;;12.24;59.11;96885.61;107907;1279;25494;-73
2022/04/07 07:28:05;;;;;;;5.30;2.80;;;;;;;12.27;58.87;96881.79;107927;1279;23851;-73
2022/04/07 07:30:33;;;;;;;4.70;2.20;;;;;;;12.30;58.42;96883.09;107876;1279;22558;-73
2022/04/07 07:33:01;;;;;;;5.50;2.40;;;;;;;12.31;57.99;96883.50;107908;1279;22750;-73
2022/04/07 07:35:29;;;;;;;7.30;2.70;;;;;;;12.35;58.06;96884.01;107945;1279;25320;-71
2022/04/07 07:37:59;;;;;;;5.30;2.50;;;;;;;12.43;58.07;96890.35;108010;1279;22559;-73
2022/04/07 07:40:29;;;;;;;4.60;2.50;;;;;;;12.54;57.98;96890.45;107905;1279;22547;-71
2022/04/07 07:42:57;;;;;;;6.70;2.90;;;;;;;12.66;57.56;96885.10;107932;1279;25507;-73
2022/04/07 07:45:25;;;;;;;4.40;2.30;;;;;;;12.75;56.99;96890.08;107904;1279;22579;-73
2022/04/07 07:47:53;;;;;;;7.10;2.70;;;;;;;12.83;56.41;96893.45;108092;1279;22759;-75
2022/04/07 07:50:21;;;;;;;5.00;2.10;;;;;;;12.91;56.24;96894.88;107937;1279;25607;-72
2022/04/07 07:52:49;;;;;;;5.80;2.70;;;;;;;13.01;55.58;96888.83;107938;1279;25394;-72
2022/04/07 07:55:17;;;;;;;4.70;2.20;;;;;;;13.10;56.06;96885.09;108027;1279;22548;-71
2022/04/07 07:57:44;;;;;;;3.90;1.80;;;;;;;13.26;55.45;96881.79;107901;1279;25345;-73
2022/04/07 08:00:14;;;;;;;4.00;2.30;;;;;;;13.34;55.00;96884.17;107939;1279;22671;-74
2022/04/07 08:02:41;;;;;;;3.50;1.90;;;;;;;13.39;54.75;96881.21;107940;1279;22726;-72
2022/04/07 08:05:09;;;;;;;4.60;2.30;;;;;;;13.42;54.71;96879.11;107909;1279;22573;-73
2022/04/07 08:07:40;;;;;;;6.50;3.70;;;;;;;13.53;54.30;96881.58;107913;1279;22639;-72
2022/04/07 08:10:09;;;;;;;4.40;2.20;;;;;;;13.60;54.46;96876.80;107960;1279;22543;-72
2022/04/07 08:12:38;;;;;;;7.50;2.60;;;;;;;13.66;54.08;96876.30;107961;1279;22534;-73
2022/04/07 08:15:06;;;;;;;5.90;2.40;;;;;;;13.71;53.84;96879.73;108054;1279;22746;-73
2022/04/07 08:17:34;;;;;;;3.20;1.60;;;;;;;13.72;53.97;96872.52;107881;1281;22575;-72
2022/04/07 08:20:04;;;;;;;4.70;1.60;;;;;;;13.77;53.17;96868.93;107934;1279;23295;-72
2022/04/07 08:22:31;;;;;;;5.70;2.00;;;;;;;13.78;53.11;96863.98;107956;1279;25311;-73
2022/04/07 08:24:58;;;;;;;3.60;1.90;;;;;;;13.82;53.19;96868.31;108036;1279;22566;-72
2022/04/07 08:27:26;;;;;;;4.20;1.90;;;;;;;13.86;52.74;96871.38;107942;1279;22546;-72
2022/04/07 08:29:53;;;;;;;4.50;1.60;;;;;;;13.87;52.60;96865.06;107912;1279;22573;-72
2022/04/07 08:32:20;;;;;;;5.10;1.90;;;;;;;13.89;52.66;96866.52;107913;1279;22620;-72
2022/04/07 08:34:47;;;;;;;2.60;1.40;;;;;;;13.93;52.45;96861.73;107926;1279;22679;-72
2022/04/07 08:37:14;;;;;;;3.70;1.40;;;;;;;13.97;52.19;96858.32;107944;1279;22798;-72
2022/04/07 08:39:41;;;;;;;4.40;1.90;;;;;;;14.02;52.22;96855.97;107949;1279;22561;-72
2022/04/07 08:42:08;;;;;;;4.00;1.80;;;;;;;14.10;52.09;96850.74;107933;1279;22681;-72
2022/04/07 08:44:36;;;;;;;3.30;1.90;;;;;;;14.22;52.11;96853.82;107952;1277;22711;-72
2022/04/07 08:47:03;;;;;;;5.90;2.00;;;;;;;14.40;52.20;96850.14;107934;1279;22619;-72
2022/04/07 08:49:31;;;;;;;4.90;2.10;;;;;;;14.53;51.58;96847.23;107910;1279;23434;-72
2022/04/07 08:51:58;;;;;;;4.10;2.10;;;;;;;14.65;51.48;96847.27;107937;1279;22659;-72
2022/04/07 08:54:26;;;;;;;4.70;1.70;;;;;;;14.78;51.15;96838.81;107930;1278;22725;-72
2022/04/07 08:56:53;;;;;;;4.50;1.80;;;;;;;14.85;51.30;96829.10;107917;1279;22667;-71
2022/04/07 08:59:21;;;;;;;4.40;1.90;;;;;;;14.98;50.44;96824.16;107911;1279;22656;-73
2022/04/07 09:01:48;;;;;;;4.90;2.00;;;;;;;15.06;50.48;96828.63;107915;1279;22548;-72
2022/04/07 09:04:15;;;;;;;5.20;2.20;;;;;;;15.07;50.18;96828.00;108059;1279;22656;-73
2022/04/07 09:06:42;;;;;;;3.00;1.40;;;;;;;15.06;50.46;96825.66;108181;1279;22684;-73
2022/04/07 09:09:12;;;;;;;2.80;1.50;;;;;;;15.09;50.43;96823.10;108120;1279;22538;-72
2022/04/07 09:11:39;;;;;;;3.50;1.50;;;;;;;15.15;50.52;96815.60;108162;1279;22603;-73
2022/04/07 09:14:10;;;;;;;3.40;1.80;;;;;;;15.24;49.91;96817.13;108317;1279;22647;-73
2022/04/07 09:16:39;;;;;;;4.10;1.70;;;;;;;15.25;49.62;96820.32;108330;1279;22663;-73
2022/04/07 09:19:08;;;;;;;3.60;1.70;;;;;;;15.34;49.59;96815.50;108202;1279;22623;-73
2022/04/07 09:21:36;;;;;;;4.30;1.50;;;;;;;15.49;49.69;96807.89;108218;1279;22548;-73
2022/04/07 09:24:05;;;;;;;5.90;1.70;;;;;;;15.55;49.62;96806.66;108226;1279;22617;-73
2022/04/07 09:26:39;;;;;;;3.20;1.50;;;;;;;15.59;48.93;96803.70;108226;1279;22534;-73
2022/04/07 09:29:09;;;;;;;3.70;1.20;;;;;;;15.52;48.60;96795.29;108295;1278;22638;-73
2022/04/07 09:31:50;;;;;;;3.30;1.50;;;;;;;15.44;48.73;96791.40;108198;1279;22532;-73
2022/04/07 09:34:29;;;;;;;5.40;2.00;;;;;;;15.40;48.76;96793.44;108169;1279;22543;-73
2022/04/07 09:37:07;;;;;;;4.50;1.80;;;;;;;15.35;49.43;96783.99;108180;1279;22567;-73
2022/04/07 09:39:36;;;;;;;3.40;1.50;;;;;;;15.39;49.33;96788.05;108300;1278;22623;-73
2022/04/07 09:42:21;;;;;;;3.90;1.40;;;;;;;15.41;48.77;96783.98;108288;1279;22631;-75
2022/04/07 09:44:56;;;;;;;3.60;1.30;;;;;;;15.33;49.10;96777.16;108247;1279;22562;-75
2022/04/07 09:47:24;;;;;;;2.80;1.40;;;;;;;15.35;48.95;96777.45;108195;1279;22538;-75
2022/04/07 09:49:51;;;;;;;2.70;1.50;;;;;;;15.34;49.29;96770.52;108227;1279;22707;-75
2022/04/07 09:52:20;;;;;;;3.30;1.40;;;;;;;15.42;49.27;96769.55;108345;1279;22562;-75
2022/04/07 09:54:51;;;;;;;4.40;1.50;;;;;;;15.47;48.78;96765.67;108177;1279;22540;-74
2022/04/07 09:57:20;;;;;;;3.00;1.40;;;;;;;15.44;49.07;96755.63;108121;1279;22678;-71
2022/04/07 09:59:48;;;;;;;4.30;1.70;;;;;;;15.42;48.87;96748.88;108077;1279;22623;-71
2022/04/07 10:02:17;;;;;;;4.50;2.10;;;;;;;15.44;49.29;96741.25;107936;1279;23552;-71
2022/04/07 10:04:45;;;;;;;5.80;2.10;;;;;;;15.51;49.25;96741.47;107953;1279;22846;-72
2022/04/07 10:07:13;;;;;;;6.00;2.30;;;;;;;15.52;48.94;96736.59;108046;1279;22587;-72
2022/04/07 10:09:46;;;;;;;4.10;2.10;;;;;;;15.52;48.75;96731.56;107966;1279;22563;-72
2022/04/07 10:12:14;;;;;;;5.40;2.50;;;;;;;15.55;48.52;96731.56;107984;1279;22956;-72
2022/04/07 10:14:42;;;;;;;3.90;2.00;;;;;;;15.58;48.50;96731.38;108159;1279;25221;-72
2022/04/07 10:17:13;;;;;;;4.60;1.80;;;;;;;15.61;48.27;96724.02;107909;1279;22569;-72
2022/04/07 10:19:57;;;;;;;5.00;2.00;;;;;;;15.56;48.12;96725.54;107934;1279;22632;-72
2022/04/07 10:22:43;;;;;;;4.30;2.30;;;;;;;15.51;48.54;96725.52;107920;1278;22876;-72
2022/04/07 10:25:12;;;;;;;5.50;2.20;;;;;;;15.60;48.58;96727.11;108025;1279;22694;-72
2022/04/07 10:27:44;;;;;;;4.20;2.20;;;;;;;15.68;48.30;96731.23;107890;1279;22597;-72
2022/04/07 10:30:11;;;;;;;5.80;2.50;;;;;;;15.78;48.32;96722.96;107925;1279;22713;-72
2022/04/07 10:32:46;;;;;;;5.30;2.70;;;;;;;15.90;48.38;96721.14;108030;1279;22561;-72
2022/04/07 10:35:36;;;;;;;4.40;2.70;;;;;;;16.04;47.87;96718.91;107935;1279;22636;-72
2022/04/07 10:38:09;;;;;;;5.20;2.50;;;;;;;16.23;47.87;96717.61;108010;1278;22714;-72
2022/04/07 10:40:48;;;;;;;4.10;2.30;;;;;;;16.37;47.66;96710.91;107934;1279;25285;-72
2022/04/07 10:43:19;;;;;;;5.40;2.60;;;;;;;16.55;47.06;96703.45;108002;1279;22553;-72
2022/04/07 10:45:48;;;;;;;5.90;2.40;;;;;;;16.65;47.05;96700.61;108012;1279;22538;-72
2022/04/07 10:48:28;;;;;;;5.10;2.80;;;;;;;16.79;46.18;96695.80;107922;1279;22653;-72
2022/04/07 10:50:55;;;;;;;6.00;2.50;;;;;;;16.74;45.70;96698.14;107927;1279;22619;-72
2022/04/07 10:53:36;;;;;;;5.80;2.20;;;;;;;16.65;46.30;96694.73;108003;1279;22597;-72
2022/04/07 10:56:24;;;;;;;5.30;2.10;;;;;;;16.62;46.04;96691.38;107938;1279;22587;-74
2022/04/07 10:58:55;;;;;;;3.90;2.30;;;;;;;16.66;45.67;96697.73;107932;1279;22739;-72
2022/04/07 11:01:31;;;;;;;4.40;1.90;;;;;;;16.57;45.82;96694.59;108030;1279;22628;-72
2022/04/07 11:07:04;;;;;;;4.60;2.30;;;;;;;16.59;45.67;96677.84;108020;1279;22629;-72
2022/04/07 11:09:52;;;;;;;6.60;2.80;;;;;;;16.57;45.72;96680.04;108011;1279;22577;-72
2022/04/07 11:12:37;;;;;;;7.00;2.90;;;;;;;16.50;45.27;96671.16;108038;1279;22561;-71
2022/04/07 11:15:05;;;;;;;8.80;5.50;;;;;;;16.51;44.67;96660.97;108011;1279;22651;-72
2022/04/07 11:17:53;;;;;;;5.10;2.50;;;;;;;16.59;45.37;96654.58;108029;1279;22669;-72
2022/04/07 11:20:25;;;;;;;4.60;2.40;;;;;;;16.88;45.18;96655.29;107981;1279;22651;-72
2022/04/07 11:23:00;;;;;;;5.40;2.30;;;;;;;17.09;44.83;96645.37;107990;1279;22664;-72
2022/04/07 11:25:36;;;;;;;5.20;2.50;;;;;;;17.21;44.05;96646.75;107876;1279;22876;-72
2022/04/07 11:28:19;;;;;;;4.60;1.90;;;;;;;17.26;44.04;96641.70;107932;1279;22633;-72
2022/04/07 11:30:47;;;;;;;5.10;2.10;;;;;;;17.20;43.88;96637.52;107916;1279;22780;-72